createdAt,value
2024-01-24T00:02:12.206Z,1.93
2024-01-24T00:04:40.028Z,1.70
2024-01-24T00:07:07.694Z,5.37
2024-01-24T00:09:35.346Z,3.37
2024-01-24T00:12:03.123Z,2.53
2024-01-24T00:14:30.833Z,2.80
2024-01-24T00:16:58.320Z,1.30
2024-01-24T00:19:25.934Z,2.10
2024-01-24T00:21:53.541Z,3.33
2024-01-24T00:24:21.437Z,1.73
2024-01-24T00:26:49.315Z,1.30
2024-01-24T00:29:17.326Z,1.60
2024-01-24T00:31:44.823Z,1.23
2024-01-24T00:34:13.098Z,1.70
2024-01-24T00:36:41.251Z,1.10
2024-01-24T00:39:11.536Z,2.20
2024-01-24T00:41:39.394Z,1.20
2024-01-24T00:44:07.698Z,1.77
2024-01-24T00:46:36.382Z,3.17
2024-01-24T00:49:11.846Z,1.53
2024-01-24T00:51:58.328Z,2.90
2024-01-24T00:54:39.242Z,1.63
2024-01-24T00:57:12.190Z,3.60
2024-01-24T01:07:58.119Z,0.97
2024-01-24T01:10:26.802Z,3.53
2024-01-24T01:12:56.079Z,1.53
2024-01-24T01:15:28.018Z,1.27
2024-01-24T01:17:58.760Z,1.63
2024-01-24T01:20:26.674Z,0.80
2024-01-24T01:22:54.549Z,3.73
2024-01-24T01:25:22.367Z,1.40
2024-01-24T01:27:50.557Z,1.03
2024-01-24T01:30:22.691Z,2.93
2024-01-24T01:32:50.184Z,0.73
2024-01-24T01:35:20.528Z,1.70
2024-01-24T01:37:51.245Z,2.23
2024-01-24T01:40:21.166Z,2.70
2024-01-24T01:42:49.089Z,0.90
2024-01-24T01:45:18.004Z,1.40
2024-01-24T01:47:46.534Z,2.93
2024-01-24T01:50:16.447Z,1.67
2024-01-24T01:52:44.388Z,2.60
2024-01-24T01:55:14.212Z,1.17
2024-01-24T01:57:48.248Z,0.97
2024-01-24T02:00:32.710Z,0.93
2024-01-24T02:03:01.376Z,0.93
2024-01-24T02:05:34.988Z,1.90
2024-01-24T02:08:05.577Z,1.37
2024-01-24T02:10:33.645Z,0.97
2024-01-24T02:13:03.672Z,0.63
2024-01-24T02:15:33.154Z,0.70
2024-01-24T02:18:01.561Z,2.20
2024-01-24T02:20:31.585Z,0.73
2024-01-24T02:22:59.625Z,0.80
2024-01-24T02:25:27.377Z,1.33
2024-01-24T02:27:55.783Z,1.13
2024-01-24T02:30:29.094Z,1.73
2024-01-24T02:32:59.683Z,1.00
2024-01-24T02:40:54.428Z,0.70
2024-01-24T02:46:19.243Z,1.13
2024-01-24T02:48:50.421Z,1.17
2024-01-24T02:51:28.813Z,0.80
2024-01-24T02:54:00.981Z,1.27
2024-01-24T02:56:29.962Z,1.50
2024-01-24T03:04:32.506Z,2.03
2024-01-24T03:15:28.226Z,1.30
2024-01-24T03:17:59.930Z,0.70
2024-01-24T03:20:28.612Z,0.60
2024-01-24T03:22:59.890Z,0.50
2024-01-24T03:48:48.163Z,0.67
2024-01-24T03:51:23.378Z,1.20
2024-01-24T03:53:53.064Z,0.83
2024-01-24T04:06:05.517Z,0.90
2024-01-24T04:08:44.149Z,0.93
2024-01-24T04:11:14.857Z,0.60
2024-01-24T04:13:44.293Z,0.70
2024-01-24T04:16:11.573Z,1.33
2024-01-24T04:24:26.052Z,1.30
2024-01-24T04:27:17.712Z,1.17
2024-01-24T04:30:05.016Z,0.70
2024-01-24T04:32:33.599Z,0.83
2024-01-24T04:40:51.306Z,0.60
2024-01-24T04:43:20.835Z,1.00
2024-01-24T04:45:50.671Z,0.83
2024-01-24T04:48:19.713Z,0.60
2024-01-24T04:50:47.391Z,0.90
2024-01-24T04:53:14.587Z,0.90
2024-01-24T04:55:41.724Z,1.87
2024-01-24T04:58:08.915Z,1.63
2024-01-24T05:00:36.289Z,1.03
2024-01-24T05:03:03.994Z,1.83
2024-01-24T05:05:31.149Z,0.90
2024-01-24T05:07:58.647Z,1.70
2024-01-24T05:10:26.065Z,1.13
2024-01-24T05:12:53.418Z,1.03
2024-01-24T05:15:20.747Z,0.60
2024-01-24T05:17:48.329Z,1.73
2024-01-24T05:20:15.812Z,0.70
2024-01-24T05:22:43.120Z,0.80
2024-01-24T05:25:10.935Z,1.10
2024-01-24T05:27:38.273Z,1.23
2024-01-24T05:30:15.785Z,2.33
2024-01-24T05:32:47.673Z,2.80
2024-01-24T05:35:15.354Z,0.63
2024-01-24T05:37:42.492Z,0.97
2024-01-24T05:40:09.985Z,0.80
2024-01-24T05:42:37.495Z,1.17
2024-01-24T05:45:04.895Z,1.53
2024-01-24T05:47:32.206Z,1.90
2024-01-24T05:50:00.092Z,1.70
2024-01-24T05:52:27.301Z,2.43
2024-01-24T05:54:54.584Z,0.80
2024-01-24T05:57:23.202Z,1.87
2024-01-24T05:59:50.746Z,0.60
2024-01-24T06:02:18.265Z,1.80
2024-01-24T06:04:45.499Z,1.43
2024-01-24T06:07:15.193Z,0.60
2024-01-24T06:09:42.452Z,1.17
2024-01-24T06:12:09.898Z,0.57
2024-01-24T06:14:37.147Z,1.27
2024-01-24T06:17:04.394Z,0.70
2024-01-24T06:19:31.711Z,1.80
2024-01-24T06:21:59.110Z,1.20
2024-01-24T06:24:26.344Z,2.13
2024-01-24T06:26:53.752Z,1.33
2024-01-24T06:30:14.770Z,1.33
2024-01-24T06:32:08.643Z,1.00
2024-01-24T06:34:36.051Z,3.60
2024-01-24T06:37:03.295Z,1.50
2024-01-24T06:39:30.644Z,0.57
2024-01-24T06:41:57.979Z,0.80
2024-01-24T06:44:27.129Z,1.70
2024-01-24T06:46:55.161Z,0.77
2024-01-24T06:49:22.381Z,2.93
2024-01-24T06:51:50.476Z,0.50
2024-01-24T06:54:17.908Z,0.90
2024-01-24T06:56:45.507Z,1.23
2024-01-24T06:59:13.240Z,0.90
2024-01-24T07:01:41.258Z,0.80
2024-01-24T07:04:08.547Z,1.20
2024-01-24T07:06:36.043Z,0.80
2024-01-24T07:09:03.401Z,1.57
2024-01-24T07:11:30.655Z,1.00
2024-01-24T07:13:57.849Z,0.90
2024-01-24T07:16:25.048Z,0.70
2024-01-24T07:18:52.533Z,2.30
2024-01-24T07:21:19.970Z,0.70
2024-01-24T07:23:47.179Z,1.43
2024-01-24T07:26:14.395Z,0.77
2024-01-24T07:28:41.549Z,1.43
2024-01-24T07:31:08.849Z,0.83
2024-01-24T07:33:36.320Z,1.37
2024-01-24T07:36:03.920Z,0.70
2024-01-24T07:38:31.594Z,0.80
2024-01-24T07:40:59.459Z,2.17
2024-01-24T07:43:26.866Z,2.80
2024-01-24T07:45:55.356Z,2.00
2024-01-24T07:48:22.991Z,15.77
2024-01-24T07:50:50.429Z,0.93
2024-01-24T07:53:19.002Z,1.00
2024-01-24T07:55:53.853Z,0.77
2024-01-24T07:58:26.915Z,3.63
2024-01-24T08:00:55.093Z,0.93
2024-01-24T08:03:22.528Z,1.63
2024-01-24T08:05:50.119Z,0.80
2024-01-24T08:08:17.360Z,2.20
2024-01-24T08:10:44.906Z,1.90
2024-01-24T08:13:12.158Z,1.83
2024-01-24T08:15:39.363Z,0.93
2024-01-24T08:18:08.636Z,1.00
2024-01-24T08:20:36.312Z,0.87
2024-01-24T08:23:03.560Z,0.83
2024-01-24T08:25:30.879Z,2.57
2024-01-24T08:27:58.668Z,1.10
2024-01-24T08:30:26.019Z,1.83
2024-01-24T08:32:53.412Z,1.90
2024-01-24T08:35:21.691Z,2.07
2024-01-24T08:37:48.915Z,1.27
2024-01-24T08:40:18.397Z,0.90
2024-01-24T08:42:45.802Z,0.80
2024-01-24T08:45:13.059Z,1.00
2024-01-24T08:47:40.588Z,1.07
2024-01-24T08:50:08.196Z,0.80
2024-01-24T08:52:36.527Z,0.90
2024-01-24T08:55:04.081Z,2.53
2024-01-24T08:57:31.587Z,1.30
2024-01-24T08:59:59.061Z,1.90
2024-01-24T09:02:27.437Z,2.50
2024-01-24T09:04:55.003Z,1.07
2024-01-24T09:07:22.848Z,1.57
2024-01-24T09:09:51.682Z,3.50
2024-01-24T09:12:19.254Z,1.30
2024-01-24T09:14:46.865Z,2.00
2024-01-24T09:17:14.366Z,1.23
2024-01-24T09:19:42.282Z,0.80
2024-01-24T09:22:12.641Z,1.83
2024-01-24T09:24:39.956Z,1.50
2024-01-24T09:27:07.234Z,1.70
2024-01-24T09:29:34.521Z,1.63
2024-01-24T09:32:01.693Z,6.63
2024-01-24T09:34:29.128Z,0.70
2024-01-24T09:36:56.676Z,0.80
2024-01-24T09:39:26.599Z,1.87
2024-01-24T09:41:53.956Z,1.07
2024-01-24T09:44:21.186Z,1.03
2024-01-24T09:46:49.489Z,0.93
2024-01-24T09:49:18.958Z,0.70
2024-01-24T09:51:46.341Z,1.57
2024-01-24T09:54:14.050Z,1.43
2024-01-24T09:56:41.585Z,1.37
2024-01-24T09:59:13.334Z,2.03
2024-01-24T10:01:41.137Z,1.40
2024-01-24T10:04:09.022Z,0.60
2024-01-24T10:06:39.050Z,0.70
2024-01-24T10:09:08.749Z,1.20
2024-01-24T10:11:36.509Z,0.80
2024-01-24T10:14:03.735Z,2.93
2024-01-24T10:16:30.975Z,1.00
2024-01-24T10:18:58.851Z,0.80
2024-01-24T10:21:27.361Z,0.70
2024-01-24T10:24:00.876Z,0.70
2024-01-24T10:26:28.588Z,0.80
2024-01-24T10:28:56.183Z,1.80
2024-01-24T10:31:24.839Z,1.43
2024-01-24T10:33:56.164Z,0.60
2024-01-24T10:36:28.281Z,1.13
2024-01-24T10:39:02.037Z,0.87
2024-01-24T10:41:31.141Z,0.90
2024-01-24T10:43:58.658Z,0.90
2024-01-24T10:46:26.674Z,0.57
2024-01-24T10:48:54.184Z,0.80
2024-01-24T10:51:21.667Z,1.10
2024-01-24T10:53:49.188Z,0.90
2024-01-24T10:56:17.248Z,1.03
2024-01-24T10:58:44.618Z,0.77
2024-01-24T11:01:12.697Z,1.27
2024-01-24T11:03:40.145Z,0.70
2024-01-24T11:06:08.379Z,1.57
2024-01-24T11:08:43.537Z,0.70
2024-01-24T11:11:15.310Z,0.87
2024-01-24T11:13:44.467Z,6.70
2024-01-24T11:16:27.487Z,1.33
2024-01-24T11:19:00.871Z,1.23
2024-01-24T11:21:32.858Z,0.70
2024-01-24T11:24:01.132Z,0.50
2024-01-24T11:26:28.280Z,0.83
2024-01-24T11:29:05.935Z,0.60
2024-01-24T11:31:43.214Z,0.50
2024-01-24T11:34:12.050Z,0.57
2024-01-24T11:36:50.221Z,0.50
2024-01-24T11:39:39.356Z,0.57
2024-01-24T11:42:25.929Z,1.33
2024-01-24T11:44:56.672Z,0.60
2024-01-24T11:47:25.540Z,2.27
2024-01-24T11:49:53.540Z,0.87
2024-01-24T11:52:24.305Z,5.20
2024-01-24T11:54:52.656Z,0.60
2024-01-24T11:57:20.549Z,1.10
2024-01-24T11:59:47.878Z,0.60
2024-01-24T12:02:15.499Z,2.00
2024-01-24T12:04:42.923Z,1.37
2024-01-24T12:07:10.636Z,0.60
2024-01-24T12:09:38.024Z,1.67
2024-01-24T12:12:05.498Z,0.50
2024-01-24T12:14:32.633Z,0.60
2024-01-24T12:17:00.320Z,1.43
2024-01-24T12:19:27.946Z,0.60
2024-01-24T12:21:55.379Z,0.50
2024-01-24T12:24:23.187Z,0.60
2024-01-24T12:26:52.301Z,0.77
2024-01-24T12:29:22.705Z,1.33
2024-01-24T12:31:50.296Z,2.00
2024-01-24T12:34:22.570Z,2.50
2024-01-24T12:36:49.860Z,1.33
2024-01-24T12:39:17.457Z,0.83
2024-01-24T12:41:45.768Z,1.70
2024-01-24T12:44:13.113Z,0.80
2024-01-24T12:46:40.360Z,0.60
2024-01-24T12:49:07.654Z,1.27
2024-01-24T12:51:40.428Z,1.77
2024-01-24T12:54:08.628Z,2.10
2024-01-24T12:56:36.042Z,2.97
2024-01-24T12:59:03.263Z,0.60
2024-01-24T13:01:30.732Z,2.23
2024-01-24T13:03:58.541Z,0.80
2024-01-24T13:06:26.037Z,0.80
2024-01-24T13:08:54.617Z,0.50
2024-01-24T13:11:21.878Z,1.20
2024-01-24T13:13:49.680Z,0.80
2024-01-24T13:16:19.071Z,0.97
2024-01-24T13:18:46.436Z,0.93
2024-01-24T13:21:13.790Z,0.80
2024-01-24T13:23:41.335Z,1.00
2024-01-24T13:26:08.948Z,1.50
2024-01-24T13:28:36.114Z,0.67
2024-01-24T13:31:03.439Z,0.93
2024-01-24T13:33:31.055Z,0.93
2024-01-24T13:35:58.304Z,2.30
2024-01-24T13:38:25.954Z,1.20
2024-01-24T13:40:53.358Z,0.90
2024-01-24T13:43:20.685Z,1.33
2024-01-24T13:45:48.394Z,1.60
2024-01-24T13:48:15.789Z,1.93
2024-01-24T13:50:43.153Z,1.27
2024-01-24T13:53:11.818Z,0.80
2024-01-24T13:55:39.515Z,1.03
2024-01-24T13:58:07.176Z,3.13
2024-01-24T14:00:34.502Z,1.30
2024-01-24T14:03:02.226Z,2.33
2024-01-24T14:05:32.198Z,3.87
2024-01-24T14:07:59.541Z,0.90
2024-01-24T14:10:28.170Z,2.60
2024-01-24T14:12:55.906Z,1.57
2024-01-24T14:15:32.931Z,1.23
2024-01-24T14:18:02.916Z,1.00
2024-01-24T14:20:31.234Z,6.80
2024-01-24T14:22:58.960Z,2.47
2024-01-24T14:25:26.140Z,0.80
2024-01-24T14:27:53.550Z,1.70
2024-01-24T14:30:20.920Z,1.17
2024-01-24T14:32:48.552Z,6.50
2024-01-24T14:35:19.173Z,4.57
2024-01-24T14:37:46.804Z,2.73
2024-01-24T14:40:15.964Z,0.70
2024-01-24T14:42:43.721Z,0.70
2024-01-24T14:45:11.573Z,0.70
2024-01-24T14:47:38.960Z,1.10
2024-01-24T14:50:13.743Z,1.07
2024-01-24T14:52:41.353Z,2.63
2024-01-24T14:55:09.382Z,1.47
2024-01-24T14:57:36.994Z,0.50
2024-01-24T15:00:11.774Z,2.30
2024-01-24T15:02:39.900Z,1.00
2024-01-24T15:05:23.098Z,4.10
2024-01-24T15:08:01.799Z,1.13
2024-01-24T15:13:20.493Z,2.57
2024-01-24T15:21:22.946Z,0.93
2024-01-24T15:26:37.207Z,1.57
2024-01-24T15:29:05.334Z,2.50
2024-01-24T15:31:33.057Z,0.80
2024-01-24T15:34:01.826Z,1.33
2024-01-24T15:36:33.597Z,0.87
2024-01-24T15:39:02.305Z,2.57
2024-01-24T15:41:29.801Z,2.80
2024-01-24T15:43:58.524Z,1.80
2024-01-24T15:46:26.458Z,3.23
2024-01-24T15:48:53.939Z,1.03
2024-01-24T15:51:21.484Z,3.07
2024-01-24T15:53:49.059Z,1.00
2024-01-24T15:56:18.831Z,3.33
2024-01-24T15:58:46.304Z,2.30
2024-01-24T16:01:13.642Z,2.80
2024-01-24T16:03:41.517Z,2.70
2024-01-24T16:06:08.927Z,2.20
2024-01-24T16:17:07.754Z,3.53
2024-01-24T16:25:19.006Z,0.90
2024-01-24T16:27:48.273Z,4.80
2024-01-24T16:42:17.389Z,1.00
2024-01-24T17:02:07.090Z,3.70
2024-01-24T17:13:07.684Z,3.33
2024-01-24T18:47:21.454Z,3.50
2024-01-24T18:49:53.765Z,6.03
2024-01-24T18:52:35.226Z,2.50
2024-01-24T19:27:36.508Z,5.43
2024-01-24T19:44:24.528Z,4.23
2024-01-24T19:46:57.249Z,3.70
2024-01-24T19:49:25.571Z,3.27
2024-01-24T19:51:54.231Z,4.50
2024-01-24T19:57:05.446Z,4.47
2024-01-24T19:59:33.573Z,3.87
2024-01-24T20:02:02.708Z,5.83
2024-01-24T20:12:41.439Z,6.40
2024-01-24T20:15:14.368Z,4.63
2024-01-24T20:17:50.853Z,4.73
2024-01-24T20:20:27.644Z,4.93
2024-01-24T20:22:56.577Z,5.47
2024-01-24T20:25:24.589Z,6.07
2024-01-24T20:27:54.101Z,3.70
2024-01-24T20:30:24.735Z,4.93
2024-01-24T20:33:04.136Z,7.03
2024-01-24T20:35:36.387Z,9.50
2024-01-24T20:38:08.394Z,6.77
2024-01-24T20:40:38.609Z,6.07
2024-01-24T20:48:51.190Z,4.47
2024-01-24T20:51:31.034Z,8.10
2024-01-24T20:54:00.728Z,3.70
2024-01-24T20:56:30.205Z,3.57
2024-01-24T20:58:58.580Z,4.90
2024-01-24T21:01:36.800Z,7.70
2024-01-24T21:04:17.762Z,13.17
2024-01-24T21:06:52.268Z,6.10
2024-01-24T21:09:23.632Z,6.40
2024-01-24T21:11:59.596Z,5.00
2024-01-24T21:14:30.425Z,5.00
2024-01-24T21:17:02.196Z,8.27
2024-01-24T21:19:31.753Z,4.47
2024-01-24T21:41:26.789Z,3.20
2024-01-24T21:52:55.879Z,8.50
2024-01-24T21:55:27.909Z,6.23
2024-01-24T21:57:59.992Z,5.30
2024-01-24T22:00:31.919Z,6.63
2024-01-24T22:03:03.042Z,6.00
2024-01-24T22:05:33.718Z,6.60
2024-01-24T22:08:02.856Z,6.93
2024-01-24T22:10:32.396Z,9.20
2024-01-24T22:13:01.051Z,3.30
2024-01-24T22:15:29.938Z,6.90
2024-01-24T22:17:58.805Z,12.90
2024-01-24T22:20:26.876Z,5.40
2024-01-24T22:22:56.475Z,6.50
2024-01-24T22:25:26.271Z,6.60
2024-01-24T22:27:57.155Z,3.77
2024-01-24T22:30:25.874Z,5.60
2024-01-24T22:32:55.533Z,7.67
2024-01-24T22:35:26.848Z,9.77
2024-01-24T22:37:57.880Z,10.40
2024-01-24T22:40:29.766Z,8.00
2024-01-24T22:43:01.756Z,6.87
2024-01-24T22:48:19.307Z,7.40
2024-01-24T22:53:56.977Z,8.03
2024-01-24T22:56:30.562Z,8.80
2024-01-24T22:59:12.059Z,4.40
2024-01-24T23:04:22.245Z,4.83
2024-01-24T23:06:56.360Z,5.90
2024-01-24T23:12:34.402Z,8.67
2024-01-24T23:23:25.333Z,6.33
2024-01-24T23:25:56.783Z,5.90
2024-01-24T23:28:24.719Z,5.27
2024-01-24T23:41:37.962Z,6.17
